Time;durP1;ratioP1;P1;durP2;ratioP2;P2;SDS_P1;SDS_P2;PMS_P1;PMS_P2;Temp;Humidity;BMP_temperature;BMP_pressure;BME280_temperature;BME280_humidity;BME280_pressure;Samples;Min_cycle;Max_cycle;Signal;HPM_P1;HPM_P2
2021/04/09 04:12:52;;;;;;;16.50;10.15;;;-3.30;99.90;;;;;;4876875;29;20467;-95
2021/04/09 04:16:06;;;;;;;17.42;10.40;;;-3.40;99.90;;;;;;4823557;29;20443;-95
2021/04/09 04:19:17;;;;;;;;;;;;;;;;;;;;;
2021/04/09 04:32:49;;;;;;;14.63;9.98;;;-3.30;99.90;;;;;;4930597;29;20537;-95
2021/04/09 04:35:46;;;;;;;18.00;9.45;;;-3.10;99.90;;;;;;4901260;29;20421;-95
2021/04/09 04:42:19;;;;;;;14.07;9.27;;;-3.20;99.90;;;;;;4874681;29;20444;-94
2021/04/09 04:45:47;;;;;;;17.55;9.52;;;-3.00;99.90;;;;;;4872914;29;20450;-95
2021/04/09 04:49:02;;;;;;;15.65;8.85;;;-2.90;99.90;;;;;;4842517;29;20432;-95
2021/04/09 04:54:50;;;;;;;13.37;8.20;;;-2.60;99.90;;;;;;5511888;23;20448;-95
2021/04/09 05:02:37;;;;;;;13.45;8.38;;;-2.30;99.90;;;;;;4783819;30;20541;-96
2021/04/09 05:05:39;;;;;;;14.40;8.07;;;-2.50;99.90;;;;;;4781763;30;20513;-94
2021/04/09 05:10:48;;;;;;;15.00;8.50;;;-2.40;99.90;;;;;;4908719;29;20768;-95
2021/04/09 05:13:16;;;;;;;14.55;8.15;;;-2.20;99.90;;;;;;4887635;29;21029;-95
2021/04/09 05:15:42;;;;;;;17.23;7.63;;;-2.10;99.90;;;;;;4883961;29;20435;-94
2021/04/09 05:18:09;;;;;;;14.48;7.82;;;-2.10;99.90;;;;;;4883364;29;20451;-94
2021/04/09 05:20:35;;;;;;;12.82;7.85;;;-2.10;99.90;;;;;;4883535;29;20434;-94
2021/04/09 05:23:02;;;;;;;13.75;7.60;;;-2.10;99.90;;;;;;4886381;29;20446;-94
2021/04/09 05:25:29;;;;;;;11.98;7.25;;;-1.90;99.90;;;;;;4887635;29;20441;-94
2021/04/09 05:27:56;;;;;;;16.58;7.80;;;-1.90;99.90;;;;;;4885829;29;20982;-94
2021/04/09 05:30:25;;;;;;;15.35;7.57;;;-1.80;99.90;;;;;;4886548;29;20425;-94
2021/04/09 05:32:53;;;;;;;14.18;7.78;;;-1.70;99.90;;;;;;4886573;29;20430;-94
2021/04/09 05:35:22;;;;;;;15.52;7.60;;;-1.70;99.90;;;;;;4885629;29;20441;-94
2021/04/09 05:37:49;;;;;;;14.43;7.65;;;-1.60;99.90;;;;;;4885564;29;20499;-95
2021/04/09 05:40:20;;;;;;;13.07;7.72;;;-1.50;99.90;;;;;;4887260;29;20763;-93
2021/04/09 05:42:56;;;;;;;10.70;6.95;;;-1.50;99.90;;;;;;4889946;29;20447;-95
2021/04/09 05:45:27;;;;;;;11.25;7.60;;;-1.40;99.90;;;;;;4886411;29;20441;-93
2021/04/09 05:47:55;;;;;;;16.98;8.20;;;-1.40;99.90;;;;;;4872386;29;20434;-94
2021/04/09 05:50:25;;;;;;;16.58;8.82;;;-1.40;99.90;;;;;;4885958;29;20435;-94
2021/04/09 05:52:52;;;;;;;15.48;8.30;;;-1.40;99.90;;;;;;4881249;29;20462;-93
2021/04/09 05:55:19;;;;;;;18.77;9.18;;;-1.20;99.90;;;;;;4885671;29;20857;-93
2021/04/09 05:57:46;;;;;;;14.05;8.02;;;-1.20;99.90;;;;;;4888513;29;20884;-95
2021/04/09 06:00:16;;;;;;;13.02;7.97;;;-0.90;99.90;;;;;;4887660;29;20443;-94
2021/04/09 06:02:43;;;;;;;18.40;8.20;;;-0.70;99.90;;;;;;4886352;29;20538;-94
2021/04/09 06:05:11;;;;;;;12.10;7.40;;;-0.20;99.90;;;;;;4923344;29;20446;-94
2021/04/09 06:07:37;;;;;;;12.88;7.28;;;0.10;99.90;;;;;;4907689;29;20444;-95
2021/04/09 06:12:51;;;;;;;12.30;6.97;;;0.50;99.90;;;;;;5020962;23;20464;-95
2021/04/09 06:15:19;;;;;;;12.10;6.50;;;0.70;99.90;;;;;;4904516;29;20415;-93
2021/04/09 06:17:45;;;;;;;10.77;6.57;;;1.20;99.90;;;;;;4892242;29;20442;-95
2021/04/09 06:20:12;;;;;;;11.90;5.88;;;2.10;99.10;;;;;;4907060;29;20523;-95
2021/04/09 06:22:42;;;;;;;9.80;5.57;;;3.30;96.50;;;;;;4907615;29;20494;-95
2021/04/09 06:25:09;;;;;;;10.00;5.53;;;5.20;91.60;;;;;;4901527;29;20502;-95
2021/04/09 06:27:36;;;;;;;8.85;5.25;;;6.60;81.20;;;;;;4893719;29;20435;-96
2021/04/09 06:30:04;;;;;;;9.02;5.38;;;7.60;76.20;;;;;;4891226;29;20484;-96
2021/04/09 06:32:31;;;;;;;12.13;4.82;;;8.10;71.70;;;;;;4887365;29;20462;-95
2021/04/09 06:34:58;;;;;;;8.38;4.82;;;8.80;64.90;;;;;;4885177;29;20449;-94
2021/04/09 06:37:24;;;;;;;8.63;4.77;;;10.30;62.00;;;;;;4885616;29;20490;-95
2021/04/09 06:39:54;;;;;;;7.45;4.50;;;11.30;55.10;;;;;;4885822;29;20431;-96
2021/04/09 06:42:22;;;;;;;7.37;4.57;;;12.20;54.90;;;;;;4891321;29;20458;-96
2021/04/09 07:00:02;;;;;;;9.30;4.53;;;12.90;44.40;;;;;;5630237;23;20468;-96
2021/04/09 07:02:44;;;;;;;8.00;4.70;;;12.90;44.80;;;;;;4880789;29;20460;-95
2021/04/09 07:06:13;;;;;;;7.53;4.77;;;12.80;43.10;;;;;;4898265;29;20886;-95
2021/04/09 07:09:14;;;;;;;7.43;4.90;;;12.70;46.10;;;;;;4883622;29;20432;-94
2021/04/09 07:11:57;;;;;;;8.10;5.00;;;12.40;44.60;;;;;;4894637;29;20421;-94
2021/04/09 07:14:53;;;;;;;9.27;5.05;;;12.80;45.90;;;;;;4877817;29;20436;-96
2021/04/09 07:17:46;;;;;;;9.38;5.15;;;13.40;46.10;;;;;;4866093;29;20429;-93
2021/04/09 07:20:31;;;;;;;8.57;4.85;;;14.40;41.40;;;;;;4861831;29;20442;-93
2021/04/09 07:23:13;;;;;;;11.68;4.90;;;15.30;40.70;;;;;;4863353;29;20450;-94
2021/04/09 07:26:06;;;;;;;8.53;4.93;;;16.30;40.80;;;;;;4874347;29;20460;-95
2021/04/09 07:28:50;;;;;;;8.43;4.60;;;16.70;36.20;;;;;;4875928;29;20506;-95
2021/04/09 07:31:33;;;;;;;8.57;4.80;;;15.70;37.60;;;;;;4864319;29;20481;-96
2021/04/09 07:34:21;;;;;;;10.02;5.18;;;14.90;40.00;;;;;;4864939;29;20426;-95
2021/04/09 07:36:57;;;;;;;8.25;5.40;;;13.30;42.60;;;;;;4847045;29;20762;-95
2021/04/09 07:39:36;;;;;;;8.52;4.82;;;12.60;44.00;;;;;;4847459;29;20446;-95
2021/04/09 07:42:11;;;;;;;11.25;4.88;;;12.10;45.60;;;;;;4849140;29;20987;-96
2021/04/09 07:44:38;;;;;;;9.98;5.10;;;11.50;47.00;;;;;;4846437;29;20505;-95
2021/04/09 07:47:25;;;;;;;7.68;4.50;;;11.60;49.30;;;;;;4847698;29;20437;-96
2021/04/09 07:50:03;;;;;;;9.82;4.82;;;11.10;48.40;;;;;;4851824;29;20446;-96
2021/04/09 07:52:43;;;;;;;8.68;4.70;;;10.40;49.40;;;;;;4857318;29;20481;-94
2021/04/09 07:55:48;;;;;;;9.57;4.57;;;9.60;53.10;;;;;;4882726;29;20410;-96
2021/04/09 08:16:55;;;;;;;12.80;4.95;;;10.30;51.40;;;;;;4890113;29;20501;-96
2021/04/09 08:19:47;;;;;;;8.25;5.10;;;10.40;53.40;;;;;;4879313;29;20786;-96
2021/04/09 08:22:52;;;;;;;9.57;5.05;;;11.00;53.00;;;;;;4898174;29;20458;-96
2021/04/09 08:25:28;;;;;;;10.90;4.85;;;10.90;52.40;;;;;;4893161;29;20429;-96
2021/04/09 08:29:06;;;;;;;12.80;6.03;;;10.90;51.80;;;;;;4894512;29;20578;-96
2021/04/09 08:36:53;;;;;;;9.20;4.75;;;11.50;50.60;;;;;;4760409;30;20489;-96
2021/04/09 08:44:00;;;;;;;8.82;5.07;;;10.90;53.20;;;;;;4766549;29;20542;-96
2021/04/09 08:49:49;;;;;;;7.47;4.82;;;11.70;52.50;;;;;;5050098;23;20413;-94
2021/04/09 08:52:46;;;;;;;10.25;4.80;;;12.00;51.40;;;;;;5009502;23;20408;31
2021/04/09 08:55:39;;;;;;;9.60;5.10;;;12.60;50.60;;;;;;904190;23;20679;-94
2021/04/09 09:33:34;;;;;;;9.13;4.82;;;10.70;54.40;;;;;;4859507;29;20472;-94
2021/04/09 09:52:24;;;;;;;13.77;6.15;;;10.30;55.90;;;;;;4974920;23;20445;-96
2021/04/09 09:56:06;;;;;;;10.40;5.50;;;9.50;56.80;;;;;;4877512;29;20414;-95
2021/04/09 10:03:46;;;;;;;5.65;2.67;;;9.60;52.80;;;;;;5384236;23;20437;-94
2021/04/09 10:20:29;;;;;;;6.57;3.00;;;9.10;51.30;;;;;;5119363;23;20717;-95
2021/04/09 10:25:56;;;;;;;5.20;2.47;;;9.50;51.70;;;;;;5202485;23;20429;-96
2021/04/09 10:28:36;;;;;;;7.65;2.80;;;9.40;50.00;;;;;;4912281;29;20577;-96
2021/04/09 10:31:21;;;;;;;6.50;2.95;;;9.30;49.90;;;;;;4865157;29;20951;-95
2021/04/09 10:33:57;;;;;;;4.50;2.63;;;9.10;51.70;;;;;;4894393;29;20498;-95
2021/04/09 10:36:33;;;;;;;6.20;3.27;;;9.10;50.20;;;;;;4876761;29;20521;-96
2021/04/09 10:39:11;;;;;;;8.60;2.90;;;9.00;50.10;;;;;;4879084;29;20466;-96
2021/04/09 10:41:46;;;;;;;6.45;2.80;;;9.10;50.70;;;;;;4875409;29;20477;-96
2021/04/09 10:44:23;;;;;;;7.28;3.00;;;9.00;50.90;;;;;;4894303;29;20439;-95
2021/04/09 10:46:55;;;;;;;5.05;2.80;;;9.10;52.90;;;;;;4892503;29;20868;-96
2021/04/09 10:49:31;;;;;;;6.28;3.22;;;9.40;50.20;;;;;;4907012;29;20486;-96
2021/04/09 10:52:20;;;;;;;8.52;2.95;;;9.50;54.30;;;;;;4882932;29;20451;-96
2021/04/09 10:55:13;;;;;;;4.63;2.65;;;9.80;52.70;;;;;;4911369;29;20516;-96
2021/04/09 10:57:41;;;;;;;7.22;3.05;;;10.10;49.80;;;;;;4894615;29;20466;-96
2021/04/09 11:00:09;;;;;;;9.73;3.40;;;10.10;51.00;;;;;;4922721;29;20431;-96
2021/04/09 11:02:38;;;;;;;7.97;3.00;;;10.10;53.10;;;;;;4934312;29;20443;-96
2021/04/09 11:05:08;;;;;;;5.55;2.72;;;10.10;51.50;;;;;;4948244;29;20499;-96
2021/04/09 11:07:51;;;;;;;6.88;3.00;;;10.20;49.50;;;;;;4935854;29;20420;-96
2021/04/09 11:10:38;;;;;;;11.38;3.30;;;10.30;50.60;;;;;;4935448;29;20614;-95
2021/04/09 11:14:19;;;;;;;6.00;3.00;;;10.20;50.60;;;;;;4938783;29;20486;-95
2021/04/09 11:17:28;;;;;;;7.65;2.63;;;10.50;49.70;;;;;;4923929;29;20410;-94
2021/04/09 11:19:57;;;;;;;5.97;2.80;;;10.40;46.40;;;;;;4928602;29;20441;-95
2021/04/09 11:22:30;;;;;;;5.97;2.38;;;10.40;48.10;;;;;;4920148;29;20456;-96
2021/04/09 11:25:12;;;;;;;5.80;2.38;;;10.60;49.70;;;;;;4936789;29;20444;-96
2021/04/09 11:27:48;;;;;;;5.47;2.20;;;11.00;49.50;;;;;;4899612;29;20444;-95
2021/04/09 11:30:22;;;;;;;6.50;2.50;;;11.30;41.70;;;;;;5018398;23;20439;-96
2021/04/09 11:33:16;;;;;;;7.90;2.33;;;11.20;46.30;;;;;;4880505;29;20437;-95
2021/04/09 11:36:47;;;;;;;5.65;2.20;;;11.40;41.30;;;;;;4879596;29;20515;-95
2021/04/09 11:39:26;;;;;;;4.45;1.80;;;11.10;41.30;;;;;;4875206;29;20469;-92
2021/04/09 11:42:25;;;;;;;5.10;1.88;;;11.40;43.20;;;;;;4891493;29;20448;-95
2021/04/09 11:45:02;;;;;;;4.30;2.13;;;11.50;40.80;;;;;;4875188;29;20439;-93
2021/04/09 11:47:38;;;;;;;3.42;1.80;;;11.40;42.10;;;;;;4874197;29;20528;-92
2021/04/09 11:54:06;;;;;;;3.97;1.92;;;12.10;38.10;;;;;;4894755;29;20468;-95
2021/04/09 11:57:06;;;;;;;7.95;2.17;;;12.20;37.50;;;;;;4882409;29;20500;-96
2021/04/09 11:59:48;;;;;;;7.30;2.10;;;12.00;39.40;;;;;;4884424;29;20421;-95
2021/04/09 12:02:27;;;;;;;6.55;2.10;;;11.50;38.00;;;;;;4886609;29;20452;-94
2021/04/09 12:04:58;;;;;;;10.20;2.70;;;11.20;37.00;;;;;;4887151;29;20431;-95
2021/04/09 12:07:27;;;;;;;4.63;2.22;;;10.90;39.90;;;;;;4882857;29;20460;-96
2021/04/09 12:10:40;;;;;;;5.47;2.30;;;10.90;39.80;;;;;;4883993;29;20401;-96
2021/04/09 12:13:09;;;;;;;4.55;2.30;;;11.30;40.50;;;;;;4880762;29;20442;-94
2021/04/09 12:32:07;;;;;;;7.03;2.50;;;13.20;40.50;;;;;;5902038;23;20410;-96
2021/04/09 12:34:37;;;;;;;6.63;2.22;;;13.60;41.70;;;;;;4971191;23;20456;-95
2021/04/09 12:37:26;;;;;;;5.97;2.20;;;13.80;37.30;;;;;;4889925;29;20906;-95
2021/04/09 12:39:58;;;;;;;6.63;2.10;;;13.70;35.00;;;;;;4886944;29;20847;-94
2021/04/09 12:45:05;;;;;;;4.47;2.10;;;13.80;34.80;;;;;;4907164;29;20439;-95
2021/04/09 12:47:35;;;;;;;5.50;2.05;;;13.40;32.20;;;;;;4890863;29;21003;-95
2021/04/09 12:50:02;;;;;;;3.40;2.10;;;13.10;35.30;;;;;;4890646;29;20427;-96
2021/04/09 12:52:29;;;;;;;6.35;2.30;;;13.20;35.80;;;;;;4890050;29;20518;-96
2021/04/09 12:54:56;;;;;;;6.00;2.42;;;13.30;37.00;;;;;;4891645;29;20795;-94
2021/04/09 12:57:24;;;;;;;5.68;2.58;;;13.60;35.50;;;;;;4893279;29;20440;-95
2021/04/09 12:59:52;;;;;;;6.18;2.58;;;13.30;35.40;;;;;;4892440;29;20435;-96
2021/04/09 13:02:32;;;;;;;5.05;2.50;;;13.10;33.60;;;;;;4895674;29;20552;-94
2021/04/09 13:05:05;;;;;;;6.15;2.80;;;13.10;34.00;;;;;;4885335;29;20463;-96
2021/04/09 13:07:41;;;;;;;6.63;2.45;;;13.10;36.30;;;;;;4903379;29;20484;-94
2021/04/09 13:13:23;;;;;;;5.97;2.35;;;12.70;34.00;;;;;;5119438;23;20423;-95
2021/04/09 13:16:11;;;;;;;4.63;2.60;;;12.30;35.00;;;;;;4903410;29;20423;-92
2021/04/09 14:09:53;;;;;;;7.72;2.70;;;15.30;33.30;;;;;;4870104;29;20510;-93
2021/04/09 14:12:54;;;;;;;6.43;3.00;;;14.80;33.80;;;;;;4889570;29;20434;-96
2021/04/09 14:15:24;;;;;;;5.53;2.53;;;14.40;33.60;;;;;;4881626;29;20441;-96
2021/04/09 14:21:03;;;;;;;6.00;2.50;;;13.80;37.50;;;;;;5028694;23;20454;-96
2021/04/09 14:24:35;;;;;;;5.47;2.55;;;14.20;33.80;;;;;;5607231;23;20468;-95
2021/04/09 14:37:19;;;;;;;6.43;2.70;;;13.70;36.30;;;;;;4922502;29;20451;-96
2021/04/09 14:40:22;;;;;;;5.18;2.75;;;13.60;35.20;;;;;;4888770;29;20511;-95
2021/04/09 14:43:49;;;;;;;7.45;2.75;;;13.40;35.00;;;;;;4890545;29;20931;-94
2021/04/09 14:53:11;;;;;;;6.72;3.17;;;13.80;38.80;;;;;;4919318;29;20420;-96
2021/04/09 15:59:35;;;;;;;4.45;2.50;;;11.40;41.50;;;;;;5973604;23;20468;31
2021/04/09 17:08:18;;;;;;;2.90;1.40;;;9.70;51.40;;;;;;857991;23;20619;-95
2021/04/09 17:10:59;;;;;;;6.32;1.20;;;9.90;54.30;;;;;;4856053;29;20429;-96
2021/04/09 17:13:41;;;;;;;5.05;1.20;;;10.00;51.70;;;;;;5602333;23;20414;-95
2021/04/09 17:19:12;;;;;;;2.05;0.80;;;10.10;52.00;;;;;;4999147;23;20443;-95
2021/04/09 17:25:02;;;;;;;4.68;1.10;;;10.20;50.80;;;;;;5226083;23;20553;31
2021/04/09 19:18:29;;;;;;;5.75;1.70;;;7.70;67.70;;;;;;5988677;23;20415;-91
2021/04/09 19:21:27;;;;;;;3.50;1.50;;;7.60;65.70;;;;;;4896973;29;20439;-94
2021/04/09 19:24:14;;;;;;;4.70;1.58;;;7.50;67.60;;;;;;4897123;29;20428;-96
2021/04/09 19:27:36;;;;;;;5.38;1.60;;;7.40;70.80;;;;;;4898125;29;20404;-96
2021/04/09 19:30:40;;;;;;;3.88;1.65;;;7.30;72.00;;;;;;4822986;29;20435;-94
2021/04/09 19:33:27;;;;;;;3.75;1.65;;;7.10;71.10;;;;;;4805077;29;20452;-94
2021/04/09 19:36:10;;;;;;;2.85;1.40;;;6.90;74.90;;;;;;4808932;29;20463;-95
2021/04/09 19:39:04;;;;;;;2.40;1.40;;;6.70;74.90;;;;;;4821782;29;20439;-95
2021/04/09 19:41:54;;;;;;;5.57;1.50;;;6.60;76.70;;;;;;4797525;29;20435;-95
2021/04/09 19:44:46;;;;;;;4.43;1.42;;;6.50;78.00;;;;;;4825379;29;20503;-96
2021/04/09 19:47:30;;;;;;;4.05;1.40;;;6.40;77.60;;;;;;4799508;29;20438;-95
2021/04/09 19:54:05;;;;;;;3.67;1.38;;;6.30;77.40;;;;;;4911110;23;20446;-95
2021/04/09 19:57:24;;;;;;;3.07;1.23;;;6.40;77.70;;;;;;4903098;29;20491;-96
2021/04/09 20:00:18;;;;;;;3.90;1.50;;;6.40;73.50;;;;;;4892858;29;20481;-95
2021/04/09 20:02:57;;;;;;;3.75;1.50;;;6.80;65.70;;;;;;4919640;29;20518;-95
2021/04/09 20:05:42;;;;;;;3.47;1.10;;;7.30;64.50;;;;;;4974021;23;20415;-96
2021/04/09 20:08:22;;;;;;;6.60;1.43;;;7.70;63.70;;;;;;4920814;29;20447;-95
2021/04/09 20:11:19;;;;;;;6.13;1.33;;;7.70;68.90;;;;;;4897443;29;20494;-96
2021/04/09 20:14:03;;;;;;;5.18;1.52;;;7.50;62.40;;;;;;4894429;29;20427;-95
2021/04/09 20:17:27;;;;;;;4.72;1.30;;;7.40;65.10;;;;;;4917709;29;20439;-96
2021/04/09 20:20:11;;;;;;;4.00;1.30;;;7.10;70.90;;;;;;4900144;29;20438;-95
2021/04/09 20:22:42;;;;;;;7.05;1.77;;;7.00;64.10;;;;;;5016898;23;20406;-95
2021/04/09 20:25:54;;;;;;;4.53;1.50;;;7.20;67.10;;;;;;5584722;23;20516;-95
